createdAt,value
2024-02-24T00:07:33.856Z,95.0
2024-02-24T00:20:33.869Z,95.0
2024-02-24T00:33:33.919Z,95.0
2024-02-24T00:46:33.870Z,95.0
2024-02-24T00:59:33.918Z,95.0
2024-02-24T01:12:33.878Z,95.0
2024-02-24T01:25:33.879Z,95.0
2024-02-24T01:38:33.895Z,96.0
2024-02-24T01:51:33.903Z,96.0
2024-02-24T02:04:33.936Z,96.0
2024-02-24T02:17:33.971Z,96.0
2024-02-24T02:30:33.919Z,96.0
2024-02-24T02:43:33.920Z,96.0
2024-02-24T02:56:33.925Z,96.0
2024-02-24T03:09:33.931Z,96.0
2024-02-24T03:22:33.928Z,96.0
2024-02-24T03:35:33.953Z,96.0
2024-02-24T03:48:34.117Z,96.0
2024-02-24T04:01:34.028Z,96.0
2024-02-24T04:14:33.966Z,96.0
2024-02-24T04:27:33.977Z,96.0
2024-02-24T04:40:33.989Z,96.0
2024-02-24T04:53:34.058Z,96.0
2024-02-24T05:06:34.066Z,96.0
2024-02-24T05:19:34.071Z,96.0
2024-02-24T05:32:34.123Z,96.0
2024-02-24T05:45:34.065Z,96.0
2024-02-24T05:59:34.133Z,96.0
2024-02-24T06:13:34.086Z,96.0
2024-02-24T06:27:34.057Z,96.0
2024-02-24T06:41:34.129Z,96.0
2024-02-24T06:56:34.085Z,95.0
2024-02-24T07:10:34.105Z,96.0
2024-02-24T07:24:34.094Z,95.0
2024-02-24T07:38:36.232Z,95.0
2024-02-24T07:52:34.095Z,95.0
2024-02-24T08:06:34.126Z,94.0
2024-02-24T08:20:36.537Z,94.0
2024-02-24T08:34:34.129Z,93.0
2024-02-24T08:48:34.132Z,91.0
2024-02-24T09:02:34.121Z,88.0
2024-02-24T09:16:34.146Z,84.0
2024-02-24T09:30:34.172Z,81.0
2024-02-24T09:44:34.139Z,78.0
2024-02-24T09:59:34.145Z,75.0
2024-02-24T10:13:34.152Z,75.0
2024-02-24T10:27:34.159Z,72.0
2024-02-24T10:41:34.186Z,71.0
2024-02-24T10:55:34.187Z,72.0
2024-02-24T11:09:34.182Z,68.0
2024-02-24T11:23:34.340Z,67.0
2024-02-24T11:37:34.196Z,68.0
2024-02-24T11:51:34.201Z,66.0
2024-02-24T12:05:34.240Z,67.0
2024-02-24T12:19:34.244Z,65.0
2024-02-24T12:33:34.351Z,64.0
2024-02-24T12:47:36.403Z,64.0
2024-02-24T13:01:34.312Z,62.0
2024-02-24T13:15:34.287Z,61.0
2024-02-24T13:29:34.278Z,60.0
2024-02-24T13:44:34.349Z,63.0
2024-02-24T13:58:34.262Z,61.0
2024-02-24T14:12:34.299Z,65.0
2024-02-24T14:26:34.379Z,65.0
2024-02-24T14:40:34.311Z,68.0
2024-02-24T14:54:34.307Z,78.0
2024-02-24T15:08:34.344Z,83.0
2024-02-24T15:22:34.313Z,87.0
2024-02-24T15:37:34.320Z,88.0
2024-02-24T15:51:34.328Z,86.0
2024-02-24T16:05:34.449Z,87.0
2024-02-24T16:19:34.332Z,88.0
2024-02-24T16:33:34.392Z,89.0
2024-02-24T16:48:34.540Z,90.0
2024-02-24T17:02:34.353Z,90.0
2024-02-24T17:16:34.340Z,88.0
2024-02-24T17:30:34.388Z,89.0
2024-02-24T17:43:34.482Z,89.0
2024-02-24T17:56:34.540Z,88.0
2024-02-24T18:09:34.487Z,85.0
2024-02-24T18:22:34.490Z,83.0
2024-02-24T18:35:34.732Z,81.0
2024-02-24T18:48:34.731Z,81.0
2024-02-24T19:01:34.706Z,82.0
2024-02-24T19:14:39.869Z,83.0
2024-02-24T19:27:34.546Z,85.0
2024-02-24T19:40:34.555Z,87.0
2024-02-24T19:53:34.566Z,89.0
2024-02-24T20:06:34.669Z,89.0
2024-02-24T20:20:34.672Z,86.0
2024-02-24T20:33:34.640Z,85.0
2024-02-24T20:46:34.556Z,85.0
2024-02-24T20:59:34.584Z,85.0
2024-02-24T21:13:34.602Z,85.0
2024-02-24T21:26:34.618Z,84.0
2024-02-24T21:39:34.618Z,84.0
2024-02-24T21:52:34.611Z,82.0
2024-02-24T22:05:34.660Z,81.0
2024-02-24T22:18:34.789Z,80.0
2024-02-24T22:31:34.699Z,79.0
2024-02-24T22:45:34.658Z,80.0
2024-02-24T22:58:34.697Z,81.0
2024-02-24T23:11:36.267Z,81.0
2024-02-24T23:24:34.690Z,83.0
2024-02-24T23:37:34.771Z,85.0
2024-02-24T23:50:34.808Z,86.0
